SUAA    
 252200Z 36006KT CAVOK 14/10 Q1014     
 SUCA    
 222200Z 16006KT 9999 FEW016 BKN200 14/12 Q1021   
 SUDU    
 242100Z 32005KT CAVOK 14/08 Q1015     
 SULS    
 260300Z 36003KT CAVOK 11/08 Q1014     
 SUMU    
 260400Z 02004KT CAVOK 09/07 Q1014 NOSIG    
 SUSO    
 252000Z 02008KT CAVOK 18/09 Q1014     
 SABE    
 260300Z 33010KT CAVOK 16/11 Q1013 NOSIG    
 SACO    
 260300Z 02006KT CAVOK 11/08 Q1008 NOSIG    
 SAEZ    
 260300 01007KT CAVOK 13/11 Q1012 NOSIG    
 SAZB    
 101215Z 22012KT 4000 RA SCT003 OVC008 12/12 Q1010  
 SAZM    
 260300Z 32012KT CAVOK 11/09 Q1010     
 SBPA    
 260300Z VRB01KT 3000 BR NSC 13/13 Q1017   
 SGAS    
 260300Z VRB06KT CAVOK 16/14 Q1014     
 SGES    
 260300Z 09003KT CAVOK 13/12 Q1016     
 SCCI    
 260300Z 31005KT CAVOK 01/M00 Q1004 NOSIG    
 SCRM    
 260300Z 08012KT 9999 FEW024 OVC028 M12/M15 Q0989 NOSIG